createdAt,value
2023-05-17T00:01:48.543Z,17.80
2023-05-17T00:04:34.210Z,17.70
2023-05-17T00:07:20.352Z,17.70
2023-05-17T00:10:08.990Z,17.70
2023-05-17T00:12:54.853Z,17.70
2023-05-17T00:15:40.712Z,17.70
2023-05-17T00:18:26.620Z,17.60
2023-05-17T00:21:12.591Z,17.60
2023-05-17T00:23:59.573Z,17.60
2023-05-17T00:26:45.399Z,17.60
2023-05-17T00:29:31.199Z,17.60
2023-05-17T00:32:16.997Z,17.50
2023-05-17T00:35:02.837Z,17.50
2023-05-17T00:37:48.615Z,17.50
2023-05-17T00:40:34.246Z,17.50
2023-05-17T00:43:20.454Z,17.50
2023-05-17T00:46:06.225Z,17.50
2023-05-17T00:48:51.699Z,17.50
2023-05-17T00:51:38.684Z,17.50
2023-05-17T00:54:24.650Z,17.50
2023-05-17T00:57:10.661Z,17.40
2023-05-17T00:59:56.894Z,17.40
2023-05-17T01:02:44.886Z,17.40
2023-05-17T01:05:31.119Z,17.40
2023-05-17T01:08:17.375Z,17.40
2023-05-17T01:11:09.019Z,17.40
2023-05-17T01:14:13.840Z,17.40
2023-05-17T01:17:07.513Z,17.40
2023-05-17T01:20:23.421Z,17.40
2023-05-17T01:23:32.556Z,17.40
2023-05-17T01:26:39.240Z,17.40
2023-05-17T01:29:29.048Z,17.40
2023-05-17T01:32:16.269Z,17.40
2023-05-17T01:35:06.348Z,17.40
2023-05-17T01:37:54.700Z,17.30
2023-05-17T01:40:52.731Z,17.30
2023-05-17T01:44:28.345Z,17.30
2023-05-17T01:47:54.276Z,17.30
2023-05-17T01:50:41.980Z,17.30
2023-05-17T01:53:40.171Z,17.30
2023-05-17T01:56:34.688Z,17.30
2023-05-17T01:59:25.629Z,17.30
2023-05-17T02:02:14.058Z,17.20
2023-05-17T02:04:59.901Z,17.20
2023-05-17T02:07:45.655Z,17.20
2023-05-17T02:10:31.433Z,17.20
2023-05-17T02:13:16.958Z,17.20
2023-05-17T02:16:04.568Z,17.20
2023-05-17T02:18:51.754Z,17.20
2023-05-17T02:21:37.486Z,17.20
2023-05-17T02:24:23.160Z,17.20
2023-05-17T02:27:09.084Z,17.20
2023-05-17T02:29:54.585Z,17.20
2023-05-17T02:32:40.872Z,17.20
2023-05-17T02:35:27.060Z,17.10
2023-05-17T02:38:13.195Z,17.10
2023-05-17T02:41:00.561Z,17.10
2023-05-17T02:43:46.405Z,17.10
2023-05-17T02:46:32.313Z,17.10
2023-05-17T02:49:18.298Z,17.00
2023-05-17T02:52:04.408Z,17.00
2023-05-17T02:54:51.731Z,17.00
2023-05-17T02:57:38.408Z,17.00
2023-05-17T03:00:24.903Z,17.00
2023-05-17T03:03:11.456Z,17.00
2023-05-17T03:06:02.325Z,17.00
2023-05-17T03:08:48.517Z,17.00
2023-05-17T03:11:35.902Z,16.90
2023-05-17T03:14:24.908Z,16.90
2023-05-17T03:17:10.828Z,16.90
2023-05-17T03:19:57.594Z,16.90
2023-05-17T03:22:43.243Z,16.90
2023-05-17T03:25:28.906Z,16.90
2023-05-17T03:28:15.069Z,16.90
2023-05-17T03:31:01.475Z,16.80
2023-05-17T03:33:50.571Z,16.80
2023-05-17T03:36:40.518Z,16.80
2023-05-17T03:39:26.272Z,16.80
2023-05-17T03:42:12.252Z,16.80
2023-05-17T03:44:58.161Z,16.80
2023-05-17T03:47:44.496Z,16.70
2023-05-17T03:50:32.829Z,16.70
2023-05-17T03:53:19.234Z,16.70
2023-05-17T03:56:06.711Z,16.70
2023-05-17T03:58:52.604Z,16.70
2023-05-17T04:01:44.207Z,16.70
2023-05-17T04:04:30.091Z,16.70
2023-05-17T04:07:16.768Z,16.70
2023-05-17T04:10:03.239Z,16.70
2023-05-17T04:12:50.337Z,16.70
2023-05-17T04:15:37.365Z,16.70
2023-05-17T04:18:24.333Z,16.70
2023-05-17T04:21:10.528Z,16.70
2023-05-17T04:23:58.151Z,16.70
2023-05-17T04:26:45.218Z,16.70
2023-05-17T04:29:31.476Z,16.70
2023-05-17T04:32:19.773Z,16.60
2023-05-17T04:35:07.006Z,16.60
2023-05-17T04:37:56.109Z,16.60
2023-05-17T04:40:44.913Z,16.60
2023-05-17T04:43:39.644Z,16.70
2023-05-17T04:46:35.344Z,16.70
2023-05-17T04:49:21.888Z,16.70
2023-05-17T04:52:08.041Z,16.70
2023-05-17T04:54:54.952Z,16.70
2023-05-17T04:57:42.183Z,16.70
2023-05-17T05:00:30.374Z,16.70
2023-05-17T05:03:23.536Z,16.70
2023-05-17T05:06:10.462Z,16.70
2023-05-17T05:08:56.290Z,16.70
2023-05-17T05:11:42.521Z,16.70
2023-05-17T05:14:28.971Z,16.70
2023-05-17T05:17:15.494Z,16.80
2023-05-17T05:20:01.522Z,16.80
2023-05-17T05:22:48.372Z,16.80
2023-05-17T05:25:38.343Z,16.80
2023-05-17T05:28:25.081Z,16.80
2023-05-17T05:31:10.901Z,16.80
2023-05-17T05:34:02.614Z,16.80
2023-05-17T05:36:49.323Z,16.90
2023-05-17T05:39:35.563Z,16.90
2023-05-17T05:42:22.117Z,17.00
2023-05-17T05:45:10.248Z,17.00
2023-05-17T05:47:56.485Z,17.00
2023-05-17T05:50:45.204Z,17.10
2023-05-17T05:53:33.319Z,17.10
2023-05-17T05:56:19.451Z,17.10
2023-05-17T05:59:06.146Z,17.10
2023-05-17T06:01:51.992Z,17.20
2023-05-17T06:04:45.141Z,17.20
2023-05-17T06:07:31.924Z,17.20
2023-05-17T06:10:17.994Z,17.30
2023-05-17T06:13:04.264Z,17.30
2023-05-17T06:15:49.747Z,17.40
2023-05-17T06:18:35.723Z,17.40
2023-05-17T06:21:21.529Z,17.40
2023-05-17T06:24:07.724Z,17.50
2023-05-17T06:26:53.448Z,17.50
2023-05-17T06:29:39.581Z,17.50
2023-05-17T06:32:26.021Z,17.60
2023-05-17T06:35:12.012Z,17.60
2023-05-17T06:37:58.094Z,17.70
2023-05-17T06:40:43.766Z,17.70
2023-05-17T06:43:29.557Z,17.70
2023-05-17T06:46:15.356Z,17.80
2023-05-17T06:49:03.032Z,17.90
2023-05-17T06:51:49.077Z,17.90
2023-05-17T06:54:34.989Z,18.00
2023-05-17T06:57:21.138Z,18.10
2023-05-17T07:00:11.176Z,18.10
2023-05-17T07:02:57.018Z,18.20
2023-05-17T07:05:43.102Z,18.30
2023-05-17T07:08:29.373Z,18.40
2023-05-17T07:11:18.075Z,18.50
2023-05-17T07:14:03.694Z,18.50
2023-05-17T07:16:49.916Z,18.60
2023-05-17T07:19:36.265Z,18.60
2023-05-17T07:22:22.835Z,18.70
2023-05-17T07:25:09.417Z,18.70
2023-05-17T07:27:55.518Z,18.80
2023-05-17T07:30:41.485Z,18.80
2023-05-17T07:33:28.284Z,18.80
2023-05-17T07:36:14.322Z,18.80
2023-05-17T07:39:00.583Z,18.80
2023-05-17T07:41:46.237Z,18.80
2023-05-17T07:44:31.951Z,18.80
2023-05-17T07:47:17.898Z,18.80
2023-05-17T07:50:04.903Z,18.80
2023-05-17T07:52:53.339Z,18.90
2023-05-17T07:55:39.522Z,18.90
2023-05-17T07:58:25.509Z,18.80
2023-05-17T08:01:11.115Z,18.80
2023-05-17T08:03:57.940Z,18.70
2023-05-17T08:06:45.991Z,18.70
2023-05-17T08:09:34.673Z,18.80
2023-05-17T08:12:20.196Z,18.90
2023-05-17T08:15:07.854Z,18.90
2023-05-17T08:17:53.523Z,18.80
2023-05-17T08:20:40.063Z,18.90
2023-05-17T08:23:26.288Z,18.80
2023-05-17T08:26:13.164Z,18.80
2023-05-17T08:28:58.866Z,18.90
2023-05-17T08:31:45.658Z,18.90
2023-05-17T08:34:31.425Z,19.00
2023-05-17T08:37:19.484Z,19.00
2023-05-17T08:40:08.171Z,19.10
2023-05-17T08:42:54.804Z,19.20
2023-05-17T08:45:41.501Z,19.30
2023-05-17T08:48:31.291Z,19.40
2023-05-17T08:51:19.689Z,19.40
2023-05-17T08:54:08.587Z,19.50
2023-05-17T08:57:06.892Z,19.60
2023-05-17T08:59:53.463Z,19.80
2023-05-17T09:02:42.369Z,20.00
2023-05-17T09:05:29.691Z,20.10
2023-05-17T09:08:15.897Z,20.10
2023-05-17T09:11:02.077Z,20.10
2023-05-17T09:13:48.177Z,20.10
2023-05-17T09:16:36.883Z,20.20
2023-05-17T09:19:24.214Z,20.30
2023-05-17T09:22:13.994Z,20.40
2023-05-17T09:25:02.752Z,20.50
2023-05-17T09:27:48.751Z,20.60
2023-05-17T09:30:42.090Z,20.50
2023-05-17T09:33:28.335Z,20.50
2023-05-17T09:36:23.327Z,20.50
2023-05-17T09:39:14.954Z,20.50
2023-05-17T09:42:01.219Z,20.40
2023-05-17T09:44:56.270Z,20.30
2023-05-17T09:47:42.735Z,20.30
2023-05-17T09:50:34.178Z,20.20
2023-05-17T09:53:27.857Z,20.20
2023-05-17T09:56:14.642Z,20.30
2023-05-17T09:59:05.050Z,20.20
2023-05-17T10:01:53.134Z,20.20
2023-05-17T10:04:40.709Z,20.20
2023-05-17T10:07:27.910Z,20.30
2023-05-17T10:10:15.807Z,20.20
2023-05-17T10:13:06.382Z,20.20
2023-05-17T10:15:53.901Z,20.20
2023-05-17T10:18:41.149Z,20.10
2023-05-17T10:21:28.648Z,20.10
2023-05-17T10:24:15.026Z,20.20
2023-05-17T10:27:01.419Z,20.10
2023-05-17T10:29:50.362Z,20.10
2023-05-17T10:32:37.141Z,20.10
2023-05-17T10:35:24.599Z,20.20
2023-05-17T10:38:10.096Z,20.30
2023-05-17T10:40:57.436Z,20.40
2023-05-17T10:43:44.278Z,20.50
2023-05-17T10:46:31.684Z,20.60
2023-05-17T10:49:20.369Z,20.70
2023-05-17T10:52:16.881Z,20.70
2023-05-17T10:55:03.084Z,20.70
2023-05-17T10:58:20.323Z,20.70
2023-05-17T11:01:08.111Z,20.70
2023-05-17T11:03:56.029Z,20.80
2023-05-17T11:06:42.485Z,20.80
2023-05-17T11:09:32.906Z,20.80
2023-05-17T11:12:41.974Z,20.80
2023-05-17T11:15:28.550Z,20.90
2023-05-17T11:18:29.003Z,20.80
2023-05-17T11:21:16.465Z,20.90
2023-05-17T11:24:04.425Z,20.90
2023-05-17T11:26:50.953Z,20.90
2023-05-17T11:29:42.326Z,20.90
2023-05-17T11:32:30.728Z,20.90
2023-05-17T11:35:19.142Z,20.80
2023-05-17T11:38:19.351Z,20.80
2023-05-17T11:44:11.322Z,21.00
2023-05-17T11:47:11.388Z,21.00
2023-05-17T11:50:03.485Z,21.00
2023-05-17T11:52:49.564Z,21.10
2023-05-17T11:55:40.491Z,21.20
2023-05-17T11:58:27.297Z,21.40
2023-05-17T12:01:13.456Z,21.50
2023-05-17T12:03:59.984Z,21.60
2023-05-17T12:06:46.355Z,21.60
2023-05-17T12:09:32.158Z,21.60
2023-05-17T12:12:18.404Z,21.70
2023-05-17T12:15:04.487Z,21.80
2023-05-17T12:17:52.748Z,21.90
2023-05-17T12:20:39.558Z,21.90
2023-05-17T12:23:50.393Z,21.90
2023-05-17T12:26:45.316Z,22.00
2023-05-17T12:29:31.522Z,22.00
2023-05-17T12:32:17.428Z,21.90
2023-05-17T12:35:03.329Z,21.80
2023-05-17T12:37:49.412Z,21.80
2023-05-17T12:40:35.615Z,21.80
2023-05-17T12:43:25.708Z,21.80
2023-05-17T12:46:20.433Z,21.80
2023-05-17T12:49:08.714Z,21.80
2023-05-17T12:51:54.675Z,21.80
2023-05-17T12:54:41.394Z,21.90
2023-05-17T12:57:27.448Z,21.90
2023-05-17T13:00:14.418Z,21.90
2023-05-17T13:03:00.302Z,21.90
2023-05-17T13:05:46.577Z,21.80
2023-05-17T13:08:33.137Z,21.80
2023-05-17T13:11:18.483Z,21.80
2023-05-17T13:14:04.821Z,21.80
2023-05-17T13:16:52.030Z,21.80
2023-05-17T13:19:38.825Z,21.80
2023-05-17T13:22:25.301Z,21.80
2023-05-17T13:25:12.721Z,21.80
2023-05-17T13:27:59.833Z,21.80
2023-05-17T13:30:50.030Z,21.80
2023-05-17T13:33:36.497Z,21.90
2023-05-17T13:36:22.747Z,21.90
2023-05-17T13:39:08.504Z,21.90
2023-05-17T13:41:54.206Z,21.90
2023-05-17T13:44:40.343Z,21.90
2023-05-17T13:47:26.339Z,21.90
2023-05-17T13:50:12.688Z,21.80
2023-05-17T13:52:59.414Z,21.70
2023-05-17T13:55:46.936Z,21.60
2023-05-17T13:58:33.340Z,21.60
2023-05-17T14:01:19.878Z,21.60
2023-05-17T14:04:06.211Z,21.60
2023-05-17T14:06:55.383Z,21.60
2023-05-17T14:09:43.457Z,21.60
2023-05-17T14:12:29.305Z,21.60
2023-05-17T14:15:16.275Z,21.60
2023-05-17T14:18:02.270Z,21.60
2023-05-17T14:20:48.473Z,21.60
2023-05-17T14:23:35.275Z,21.50
2023-05-17T14:26:21.717Z,21.40
2023-05-17T14:29:07.644Z,21.40
2023-05-17T14:31:53.649Z,21.30
2023-05-17T14:34:40.023Z,21.30
2023-05-17T14:37:26.330Z,21.30
2023-05-17T14:40:12.913Z,21.20
2023-05-17T14:42:58.872Z,21.20
2023-05-17T14:45:45.099Z,21.20
2023-05-17T14:48:31.815Z,21.20
2023-05-17T14:51:19.537Z,21.20
2023-05-17T14:54:06.434Z,21.20
2023-05-17T14:56:52.701Z,21.20
2023-05-17T14:59:39.090Z,21.20
2023-05-17T15:02:25.165Z,21.20
2023-05-17T15:05:11.759Z,21.30
2023-05-17T15:07:57.763Z,21.30
2023-05-17T15:10:43.499Z,21.30
2023-05-17T15:13:30.179Z,21.30
2023-05-17T15:16:16.211Z,21.30
2023-05-17T15:19:03.683Z,21.30
2023-05-17T15:21:50.775Z,21.30
2023-05-17T15:24:37.666Z,21.30
2023-05-17T15:27:23.796Z,21.30
2023-05-17T15:30:13.539Z,21.30
2023-05-17T15:33:00.276Z,21.20
2023-05-17T15:35:46.290Z,21.10
2023-05-17T15:38:32.289Z,21.10
2023-05-17T15:41:21.748Z,21.10
2023-05-17T15:44:09.133Z,21.10
2023-05-17T15:46:54.741Z,21.20
2023-05-17T15:49:41.403Z,21.20
2023-05-17T15:52:27.853Z,21.20
2023-05-17T15:55:13.745Z,21.20
2023-05-17T15:57:59.489Z,21.10
2023-05-17T16:00:46.472Z,21.00
2023-05-17T16:03:33.461Z,20.90
2023-05-17T16:06:19.804Z,20.80
2023-05-17T16:09:05.790Z,20.70
2023-05-17T16:11:52.199Z,20.70
2023-05-17T16:14:40.755Z,20.60
2023-05-17T16:17:27.225Z,20.60
2023-05-17T16:20:13.724Z,20.60
2023-05-17T16:23:01.114Z,20.60
2023-05-17T16:25:47.254Z,20.60
2023-05-17T16:28:34.814Z,20.60
2023-05-17T16:31:21.049Z,20.60
2023-05-17T16:34:07.695Z,20.60
2023-05-17T16:36:53.837Z,20.60
2023-05-17T16:39:39.909Z,20.60
2023-05-17T16:42:26.043Z,20.50
2023-05-17T16:45:12.069Z,20.40
2023-05-17T16:47:57.945Z,20.40
2023-05-17T16:50:44.810Z,20.40
2023-05-17T16:53:30.751Z,20.30
2023-05-17T16:56:16.364Z,20.30
2023-05-17T16:59:02.268Z,20.20
2023-05-17T17:01:48.056Z,20.20
2023-05-17T17:04:34.401Z,20.30
2023-05-17T17:07:20.937Z,20.20
2023-05-17T17:10:08.014Z,20.10
2023-05-17T17:12:53.926Z,20.10
2023-05-17T17:15:39.746Z,20.10
2023-05-17T17:18:25.433Z,20.00
2023-05-17T17:21:11.022Z,20.00
2023-05-17T17:23:57.440Z,19.90
2023-05-17T17:26:43.627Z,19.80
2023-05-17T17:29:29.768Z,19.80
2023-05-17T17:32:15.744Z,19.70
2023-05-17T17:35:02.597Z,19.70
2023-05-17T17:37:49.222Z,19.70
2023-05-17T17:40:39.548Z,19.70
2023-05-17T17:43:28.031Z,19.70
2023-05-17T17:46:13.825Z,19.70
2023-05-17T17:48:59.609Z,19.70
2023-05-17T17:51:45.818Z,19.70
2023-05-17T17:54:32.220Z,19.70
2023-05-17T17:57:19.425Z,19.70
2023-05-17T18:00:06.428Z,19.70
2023-05-17T18:02:52.047Z,19.70
2023-05-17T18:05:38.198Z,19.70
2023-05-17T18:08:24.659Z,19.70
2023-05-17T18:11:10.734Z,19.70
2023-05-17T18:13:56.707Z,19.70
2023-05-17T18:16:42.507Z,19.70
2023-05-17T18:19:28.653Z,19.60
2023-05-17T18:22:18.981Z,19.60
2023-05-17T18:25:06.649Z,19.60
2023-05-17T18:27:52.453Z,19.60
2023-05-17T18:30:40.231Z,19.60
2023-05-17T18:33:27.435Z,19.60
2023-05-17T18:36:14.827Z,19.60
2023-05-17T18:39:01.101Z,19.50
2023-05-17T18:41:47.312Z,19.50
2023-05-17T18:44:34.911Z,19.50
2023-05-17T18:47:23.520Z,19.50
2023-05-17T18:50:10.209Z,19.40
2023-05-17T18:52:57.232Z,19.40
2023-05-17T18:55:43.278Z,19.40
2023-05-17T18:58:29.697Z,19.40
2023-05-17T19:01:15.185Z,19.40
2023-05-17T19:04:01.362Z,19.30
2023-05-17T19:06:47.189Z,19.30
2023-05-17T19:09:34.699Z,19.30
2023-05-17T19:12:20.994Z,19.20
2023-05-17T19:15:09.506Z,19.20
2023-05-17T19:17:55.691Z,19.20
2023-05-17T19:20:41.504Z,19.20
2023-05-17T19:23:28.261Z,19.20
2023-05-17T19:26:14.398Z,19.20
2023-05-17T19:29:00.157Z,19.10
2023-05-17T19:31:46.358Z,19.10
2023-05-17T19:34:32.465Z,19.10
2023-05-17T19:37:19.067Z,19.00
2023-05-17T19:40:06.084Z,19.00
2023-05-17T19:42:51.900Z,18.90
2023-05-17T19:45:37.648Z,18.90
2023-05-17T19:48:24.411Z,18.80
2023-05-17T19:51:11.295Z,18.70
2023-05-17T19:53:57.174Z,18.70
2023-05-17T19:56:42.842Z,18.60
2023-05-17T19:59:28.902Z,18.60
2023-05-17T20:02:14.555Z,18.60
2023-05-17T20:05:03.864Z,18.50
2023-05-17T20:07:50.119Z,18.50
2023-05-17T20:10:37.495Z,18.40
2023-05-17T20:13:28.640Z,18.40
2023-05-17T20:16:15.109Z,18.30
2023-05-17T20:19:01.369Z,18.30
2023-05-17T20:21:47.703Z,18.30
2023-05-17T20:24:34.984Z,18.30
2023-05-17T20:27:20.717Z,18.30
2023-05-17T20:30:07.733Z,18.30
2023-05-17T20:32:53.954Z,18.30
2023-05-17T20:35:39.976Z,18.30
2023-05-17T20:38:25.805Z,18.20
2023-05-17T20:41:13.121Z,18.10
2023-05-17T20:43:59.106Z,18.10
2023-05-17T20:46:47.145Z,18.10
2023-05-17T20:49:32.967Z,18.00
2023-05-17T20:52:27.729Z,17.90
2023-05-17T20:55:24.461Z,17.90
2023-05-17T20:58:10.858Z,17.80
2023-05-17T21:00:58.385Z,17.80
2023-05-17T21:03:44.231Z,17.70
2023-05-17T21:06:32.464Z,17.60
2023-05-17T21:09:18.989Z,17.60
2023-05-17T21:12:05.544Z,17.60
2023-05-17T21:15:03.697Z,17.50
2023-05-17T21:17:56.742Z,17.40
2023-05-17T21:20:43.053Z,17.40
2023-05-17T21:23:28.864Z,17.30
2023-05-17T21:26:15.925Z,17.30
2023-05-17T21:29:01.855Z,17.20
2023-05-17T21:31:47.415Z,17.20
2023-05-17T21:34:33.369Z,17.10
2023-05-17T21:37:19.018Z,17.10
2023-05-17T21:40:05.904Z,17.00
2023-05-17T21:42:51.710Z,17.00
2023-05-17T21:45:38.486Z,16.90
2023-05-17T21:48:24.742Z,16.90
2023-05-17T21:51:10.498Z,16.80
2023-05-17T21:53:56.102Z,16.80
2023-05-17T21:56:41.643Z,16.70
2023-05-17T21:59:27.257Z,16.70
2023-05-17T22:02:13.347Z,16.70
2023-05-17T22:04:59.308Z,16.60
2023-05-17T22:07:45.178Z,16.60
2023-05-17T22:10:33.257Z,16.50
2023-05-17T22:13:19.587Z,16.50
2023-05-17T22:16:07.125Z,16.50
2023-05-17T22:18:52.909Z,16.40
2023-05-17T22:21:39.584Z,16.40
2023-05-17T22:24:25.389Z,16.40
2023-05-17T22:27:12.021Z,16.30
2023-05-17T22:29:58.082Z,16.30
2023-05-17T22:32:44.203Z,16.30
2023-05-17T22:35:30.172Z,16.30
2023-05-17T22:38:16.062Z,16.20
2023-05-17T22:41:01.849Z,16.20
2023-05-17T22:43:48.475Z,16.20
2023-05-17T22:46:34.437Z,16.20
2023-05-17T22:49:20.482Z,16.10
2023-05-17T22:52:08.018Z,16.10
2023-05-17T22:54:53.931Z,16.10
2023-05-17T22:57:39.565Z,16.00
2023-05-17T23:00:26.946Z,16.00
2023-05-17T23:03:13.683Z,16.00
2023-05-17T23:06:03.144Z,15.90
2023-05-17T23:08:53.292Z,15.90
2023-05-17T23:11:41.091Z,15.90
2023-05-17T23:14:28.379Z,15.90
2023-05-17T23:17:14.502Z,15.80
2023-05-17T23:20:13.186Z,15.80
2023-05-17T23:22:59.687Z,15.80
2023-05-17T23:25:48.929Z,15.80
2023-05-17T23:28:36.734Z,15.70
2023-05-17T23:31:22.650Z,15.70
2023-05-17T23:34:08.939Z,15.70
2023-05-17T23:36:54.916Z,15.60
2023-05-17T23:39:40.365Z,15.60
2023-05-17T23:42:32.712Z,15.60
2023-05-17T23:45:18.806Z,15.50
2023-05-17T23:48:04.573Z,15.50
2023-05-17T23:50:50.297Z,15.50
2023-05-17T23:53:38.339Z,15.50
2023-05-17T23:56:24.098Z,15.50
2023-05-17T23:59:10.104Z,15.50
